createdAt,value
2023-05-09T00:00:23.594Z,47.58
2023-05-09T00:02:51.684Z,53.20
2023-05-09T00:05:20.030Z,45.17
2023-05-09T00:07:48.460Z,48.22
2023-05-09T00:10:16.786Z,47.97
2023-05-09T00:12:46.644Z,50.08
2023-05-09T00:15:14.460Z,52.08
2023-05-09T00:17:42.323Z,50.00
2023-05-09T00:20:13.509Z,50.40
2023-05-09T00:22:42.128Z,51.38
2023-05-09T00:25:10.687Z,50.10
2023-05-09T00:27:39.070Z,49.67
2023-05-09T00:30:07.375Z,56.47
2023-05-09T00:32:36.106Z,46.13
2023-05-09T00:35:04.323Z,49.23
2023-05-09T00:37:32.470Z,50.70
2023-05-09T00:40:01.457Z,47.57
2023-05-09T00:42:30.270Z,62.20
2023-05-09T00:44:58.568Z,53.97
2023-05-09T00:47:28.698Z,51.03
2023-05-09T00:49:58.314Z,47.45
2023-05-09T00:52:26.444Z,50.07
2023-05-09T00:54:55.151Z,53.40
2023-05-09T00:57:23.326Z,49.63
2023-05-09T00:59:52.264Z,50.92
2023-05-09T01:02:20.022Z,49.33
2023-05-09T01:04:48.745Z,50.38
2023-05-09T01:07:33.066Z,49.83
2023-05-09T01:10:06.396Z,51.53
2023-05-09T01:12:58.350Z,51.63
2023-05-09T01:15:49.622Z,52.60
2023-05-09T01:18:22.560Z,52.20
2023-05-09T01:20:57.681Z,57.83
2023-05-09T01:23:58.405Z,50.13
2023-05-09T01:26:45.341Z,45.67
2023-05-09T01:29:23.314Z,49.33
2023-05-09T01:31:52.389Z,46.23
2023-05-09T01:34:20.096Z,45.47
2023-05-09T01:36:48.570Z,42.00
2023-05-09T01:39:19.655Z,39.10
2023-05-09T01:41:51.230Z,39.40
2023-05-09T01:44:19.108Z,35.80
2023-05-09T01:46:47.898Z,38.97
2023-05-09T01:49:16.799Z,36.08
2023-05-09T01:51:44.947Z,42.93
2023-05-09T01:54:13.303Z,42.60
2023-05-09T01:56:43.262Z,44.53
2023-05-09T01:59:17.549Z,40.90
2023-05-09T02:01:46.266Z,39.97
2023-05-09T02:04:15.253Z,43.40
2023-05-09T02:06:46.271Z,44.97
2023-05-09T02:09:14.707Z,41.67
2023-05-09T02:11:42.387Z,45.27
2023-05-09T02:14:12.781Z,40.03
2023-05-09T02:16:43.016Z,45.10
2023-05-09T02:19:10.723Z,45.83
2023-05-09T02:21:41.438Z,59.50
2023-05-09T02:24:10.482Z,54.38
2023-05-09T02:26:38.129Z,52.40
2023-05-09T02:29:07.057Z,49.63
2023-05-09T02:31:36.194Z,49.47
2023-05-09T02:34:07.523Z,50.03
2023-05-09T02:36:35.470Z,47.83
2023-05-09T02:39:03.251Z,47.87
2023-05-09T02:41:32.043Z,47.20
2023-05-09T02:44:00.581Z,49.23
2023-05-09T02:46:29.821Z,51.00
2023-05-09T02:48:58.903Z,48.77
2023-05-09T02:51:26.592Z,53.10
2023-05-09T02:53:54.085Z,58.47
2023-05-09T02:56:21.546Z,54.97
2023-05-09T02:58:51.903Z,53.10
2023-05-09T03:01:20.593Z,53.10
2023-05-09T03:03:49.495Z,52.97
2023-05-09T03:06:17.552Z,52.80
2023-05-09T03:08:45.200Z,52.67
2023-05-09T03:11:14.195Z,52.27
2023-05-09T03:13:41.829Z,56.92
2023-05-09T03:16:09.313Z,57.87
2023-05-09T03:18:36.952Z,55.50
2023-05-09T03:21:05.752Z,52.87
2023-05-09T03:23:33.642Z,54.70
2023-05-09T03:26:01.723Z,55.40
2023-05-09T03:28:30.980Z,52.23
2023-05-09T03:30:58.822Z,55.27
2023-05-09T03:33:29.152Z,51.60
2023-05-09T03:35:56.978Z,56.97
2023-05-09T03:38:25.313Z,52.23
2023-05-09T03:40:54.666Z,53.17
2023-05-09T03:43:22.221Z,54.25
2023-05-09T03:45:49.941Z,48.40
2023-05-09T03:48:22.094Z,51.60
2023-05-09T03:50:50.029Z,52.30
2023-05-09T03:53:17.838Z,53.27
2023-05-09T03:55:46.612Z,53.23
2023-05-09T03:58:15.958Z,51.13
2023-05-09T04:00:43.619Z,54.13
2023-05-09T04:03:11.202Z,55.87
2023-05-09T04:05:38.892Z,59.00
2023-05-09T04:08:06.902Z,60.75
2023-05-09T04:10:35.538Z,62.97
2023-05-09T04:13:03.463Z,66.10
2023-05-09T04:15:32.580Z,59.80
2023-05-09T04:18:00.987Z,61.23
2023-05-09T04:20:30.272Z,60.13
2023-05-09T04:23:00.128Z,61.70
2023-05-09T04:25:29.755Z,59.93
2023-05-09T04:27:57.899Z,65.13
2023-05-09T04:30:28.470Z,64.93
2023-05-09T04:32:56.681Z,71.38
2023-05-09T04:35:24.955Z,61.25
2023-05-09T04:37:53.539Z,65.97
2023-05-09T04:40:21.970Z,59.85
2023-05-09T04:42:50.586Z,65.30
2023-05-09T04:45:19.164Z,66.27
2023-05-09T04:47:47.165Z,69.03
2023-05-09T04:50:14.704Z,66.47
2023-05-09T04:52:42.005Z,80.83
2023-05-09T04:55:10.553Z,61.43
2023-05-09T04:57:38.877Z,57.27
2023-05-09T05:00:12.303Z,55.97
2023-05-09T05:02:40.706Z,54.43
2023-05-09T05:05:12.495Z,50.67
2023-05-09T05:07:40.825Z,49.75
2023-05-09T05:10:08.724Z,50.33
2023-05-09T05:12:37.172Z,58.73
2023-05-09T05:15:05.860Z,51.53
2023-05-09T05:17:33.898Z,50.93
2023-05-09T05:20:01.485Z,49.67
2023-05-09T05:22:32.197Z,46.83
2023-05-09T05:25:02.354Z,50.55
2023-05-09T05:27:30.721Z,47.57
2023-05-09T05:29:59.524Z,44.07
2023-05-09T05:32:28.040Z,44.08
2023-05-09T05:34:55.902Z,44.95
2023-05-09T05:37:24.912Z,43.35
2023-05-09T05:39:53.164Z,45.70
2023-05-09T05:42:22.216Z,48.35
2023-05-09T05:44:49.996Z,46.00
2023-05-09T05:47:18.706Z,47.33
2023-05-09T05:49:46.749Z,47.42
2023-05-09T05:52:15.174Z,39.88
2023-05-09T05:54:45.646Z,45.33
2023-05-09T05:57:13.057Z,41.78
2023-05-09T05:59:40.698Z,40.85
2023-05-09T06:02:09.844Z,40.05
2023-05-09T06:04:37.131Z,41.47
2023-05-09T06:07:04.464Z,39.72
2023-05-09T06:09:32.213Z,40.55
2023-05-09T06:12:01.512Z,40.15
2023-05-09T06:14:30.662Z,38.10
2023-05-09T06:17:05.140Z,36.70
2023-05-09T06:19:34.177Z,43.63
2023-05-09T06:22:01.830Z,37.95
2023-05-09T06:24:35.640Z,37.33
2023-05-09T06:27:04.419Z,38.22
2023-05-09T06:29:32.258Z,36.30
2023-05-09T06:31:59.822Z,35.25
2023-05-09T06:34:27.606Z,36.90
2023-05-09T06:36:56.181Z,34.83
2023-05-09T06:39:23.507Z,35.08
2023-05-09T06:41:50.819Z,34.10
2023-05-09T06:44:18.475Z,34.80
2023-05-09T06:46:49.838Z,33.03
2023-05-09T06:49:19.128Z,37.75
2023-05-09T06:51:47.337Z,39.42
2023-05-09T06:54:15.210Z,44.53
2023-05-09T06:56:42.674Z,37.00
2023-05-09T06:59:13.696Z,31.35
2023-05-09T07:01:43.335Z,32.35
2023-05-09T07:04:11.698Z,36.00
2023-05-09T07:06:40.400Z,32.83
2023-05-09T07:09:09.043Z,33.15
2023-05-09T07:11:39.878Z,31.17
2023-05-09T07:14:08.666Z,32.90
2023-05-09T07:16:37.872Z,34.83
2023-05-09T07:19:05.640Z,30.58
2023-05-09T07:21:34.719Z,31.55
2023-05-09T07:24:02.694Z,32.42
2023-05-09T07:26:30.309Z,32.13
2023-05-09T07:28:59.092Z,39.53
2023-05-09T07:31:26.664Z,30.23
2023-05-09T07:33:54.319Z,27.70
2023-05-09T07:36:22.030Z,26.52
2023-05-09T07:38:50.891Z,26.88
2023-05-09T07:41:20.751Z,26.48
2023-05-09T07:43:49.834Z,25.08
2023-05-09T07:46:18.207Z,24.73
2023-05-09T07:48:54.931Z,26.70
2023-05-09T07:51:22.795Z,26.33
2023-05-09T07:53:51.771Z,25.75
2023-05-09T07:56:19.261Z,27.15
2023-05-09T07:58:47.355Z,26.25
2023-05-09T08:01:14.813Z,25.95
2023-05-09T08:03:42.148Z,21.73
2023-05-09T08:06:09.633Z,25.77
2023-05-09T08:08:38.957Z,26.48
2023-05-09T08:11:08.355Z,24.73
2023-05-09T08:13:36.868Z,23.85
2023-05-09T08:16:05.106Z,26.95
2023-05-09T08:18:33.590Z,25.65
2023-05-09T08:21:03.183Z,24.23
2023-05-09T08:23:30.829Z,24.48
2023-05-09T08:25:59.670Z,27.15
2023-05-09T08:28:30.290Z,28.23
2023-05-09T08:30:58.784Z,25.65
2023-05-09T08:33:26.221Z,27.77
2023-05-09T08:35:54.581Z,25.17
2023-05-09T08:38:21.924Z,26.30
2023-05-09T08:40:49.423Z,27.98
2023-05-09T08:43:20.287Z,30.33
2023-05-09T08:45:48.791Z,25.05
2023-05-09T08:48:19.547Z,29.60
2023-05-09T08:50:46.830Z,26.05
2023-05-09T08:53:14.507Z,24.15
2023-05-09T08:55:42.007Z,24.42
2023-05-09T08:58:10.450Z,22.77
2023-05-09T09:00:41.327Z,15.35
2023-05-09T09:03:08.796Z,16.17
2023-05-09T09:05:41.972Z,17.17
2023-05-09T09:08:11.074Z,17.45
2023-05-09T09:10:41.786Z,16.58
2023-05-09T09:13:09.483Z,16.48
2023-05-09T09:15:37.973Z,16.98
2023-05-09T09:18:08.059Z,15.82
2023-05-09T09:20:36.360Z,15.40
2023-05-09T09:23:05.743Z,18.02
2023-05-09T09:25:33.401Z,17.40
2023-05-09T09:28:00.959Z,18.80
2023-05-09T09:30:30.654Z,15.93
2023-05-09T09:33:00.681Z,22.65
2023-05-09T09:35:28.228Z,15.38
2023-05-09T09:38:00.217Z,13.35
2023-05-09T09:40:27.865Z,15.07
2023-05-09T09:42:55.234Z,13.55
2023-05-09T09:45:22.480Z,13.68
2023-05-09T09:47:50.528Z,13.23
2023-05-09T09:50:19.101Z,11.60
2023-05-09T09:52:53.837Z,10.68
2023-05-09T09:55:22.935Z,10.32
2023-05-09T09:57:52.356Z,10.38
2023-05-09T10:00:21.715Z,9.40
2023-05-09T10:02:53.043Z,9.82
2023-05-09T10:05:27.477Z,11.25
2023-05-09T10:07:56.614Z,9.25
2023-05-09T10:10:24.008Z,9.52
2023-05-09T10:12:51.362Z,9.77
2023-05-09T10:15:20.304Z,9.38
2023-05-09T10:17:48.699Z,9.73
2023-05-09T10:20:17.783Z,10.63
2023-05-09T10:22:45.509Z,9.07
2023-05-09T10:25:20.272Z,11.65
2023-05-09T10:27:48.343Z,9.65
2023-05-09T10:30:19.338Z,12.60
2023-05-09T10:32:52.038Z,8.18
2023-05-09T10:35:20.476Z,7.47
2023-05-09T10:37:48.786Z,9.35
2023-05-09T10:40:16.540Z,7.30
2023-05-09T10:42:44.335Z,7.38
2023-05-09T10:45:15.457Z,5.70
2023-05-09T10:47:44.625Z,10.40
2023-05-09T10:50:13.324Z,7.32
2023-05-09T10:53:08.844Z,6.13
2023-05-09T10:55:38.462Z,6.70
2023-05-09T10:58:26.125Z,4.75
2023-05-09T11:00:55.391Z,4.55
2023-05-09T11:03:25.469Z,3.30
2023-05-09T11:05:54.343Z,3.55
2023-05-09T11:08:30.128Z,4.40
2023-05-09T11:11:01.257Z,3.80
2023-05-09T11:13:32.183Z,4.82
2023-05-09T11:16:03.172Z,6.45
2023-05-09T11:18:31.968Z,4.65
2023-05-09T11:21:01.771Z,4.00
2023-05-09T11:23:31.531Z,3.83
2023-05-09T11:26:07.973Z,5.43
2023-05-09T11:28:36.820Z,5.57
2023-05-09T11:31:17.382Z,6.32
2023-05-09T11:33:46.711Z,4.97
2023-05-09T11:36:27.061Z,4.55
2023-05-09T11:39:03.150Z,4.47
2023-05-09T11:41:31.485Z,6.00
2023-05-09T11:44:00.434Z,7.30
2023-05-09T11:46:28.132Z,7.22
2023-05-09T11:48:55.557Z,4.93
2023-05-09T11:51:23.286Z,6.68
2023-05-09T11:53:51.991Z,5.82
2023-05-09T11:56:20.815Z,5.40
2023-05-09T11:58:51.777Z,8.23
2023-05-09T12:01:19.735Z,6.00
2023-05-09T12:03:47.931Z,7.57
2023-05-09T12:06:22.029Z,4.68
2023-05-09T12:08:50.072Z,5.13
2023-05-09T12:11:18.801Z,4.97
2023-05-09T12:13:49.343Z,4.45
2023-05-09T12:16:17.911Z,5.45
2023-05-09T12:18:46.322Z,5.88
2023-05-09T12:21:14.028Z,4.50
2023-05-09T12:23:41.325Z,4.03
2023-05-09T12:26:11.627Z,4.22
2023-05-09T12:28:39.513Z,3.92
2023-05-09T12:31:07.328Z,4.65
2023-05-09T12:33:34.948Z,4.07
2023-05-09T12:36:03.685Z,3.83
2023-05-09T12:38:31.627Z,6.60
2023-05-09T12:41:03.857Z,3.75
2023-05-09T12:43:33.841Z,3.75
2023-05-09T12:46:02.669Z,6.18
2023-05-09T12:48:30.620Z,3.38
2023-05-09T12:50:58.079Z,3.13
2023-05-09T12:53:26.186Z,3.17
2023-05-09T12:55:58.794Z,4.50
2023-05-09T12:58:29.922Z,3.85
2023-05-09T13:00:58.276Z,4.00
2023-05-09T13:03:26.862Z,3.17
2023-05-09T13:06:05.177Z,3.38
2023-05-09T13:08:33.983Z,3.33
2023-05-09T13:11:14.724Z,3.55
2023-05-09T13:13:43.918Z,3.60
2023-05-09T13:16:14.212Z,2.72
2023-05-09T13:18:44.230Z,3.88
2023-05-09T13:21:11.706Z,3.30
2023-05-09T13:23:40.164Z,3.78
2023-05-09T13:26:08.795Z,3.05
2023-05-09T13:28:37.242Z,3.08
2023-05-09T13:31:05.815Z,3.10
2023-05-09T13:33:34.350Z,2.80
2023-05-09T13:36:02.373Z,2.95
2023-05-09T13:38:36.609Z,2.65
2023-05-09T13:41:05.014Z,2.90
2023-05-09T13:43:33.094Z,3.45
2023-05-09T13:46:01.822Z,3.47
2023-05-09T13:48:29.850Z,2.97
2023-05-09T13:50:59.638Z,2.95
2023-05-09T13:53:26.977Z,2.67
2023-05-09T13:55:54.982Z,2.92
2023-05-09T13:58:23.298Z,2.50
2023-05-09T14:00:50.796Z,3.78
2023-05-09T14:03:18.410Z,3.47
2023-05-09T14:05:46.963Z,3.90
2023-05-09T14:08:15.665Z,3.20
2023-05-09T14:10:44.087Z,5.03
2023-05-09T14:13:12.854Z,3.78
2023-05-09T14:15:40.765Z,6.30
2023-05-09T14:18:09.395Z,5.10
2023-05-09T14:20:38.057Z,4.65
2023-05-09T14:23:07.785Z,3.72
2023-05-09T14:25:35.409Z,3.78
2023-05-09T14:28:03.132Z,3.60
2023-05-09T14:30:31.908Z,3.90
2023-05-09T14:33:00.351Z,4.00
2023-05-09T14:35:28.100Z,5.82
2023-05-09T14:37:55.881Z,4.05
2023-05-09T14:40:23.599Z,3.58
2023-05-09T14:42:51.047Z,3.17
2023-05-09T14:45:18.552Z,3.67
2023-05-09T14:47:46.651Z,4.65
2023-05-09T14:50:16.192Z,4.97
2023-05-09T14:52:44.472Z,6.20
2023-05-09T14:55:12.019Z,5.32
2023-05-09T14:57:39.768Z,5.10
2023-05-09T15:00:19.497Z,4.90
2023-05-09T15:02:48.575Z,6.18
2023-05-09T15:05:16.875Z,5.63
2023-05-09T15:07:44.255Z,5.15
2023-05-09T15:10:11.893Z,8.50
2023-05-09T15:12:39.447Z,6.57
2023-05-09T15:15:13.280Z,5.32
2023-05-09T15:17:40.726Z,5.68
2023-05-09T15:20:08.324Z,7.35
2023-05-09T15:22:35.805Z,5.18
2023-05-09T15:25:05.382Z,7.68
2023-05-09T15:27:33.431Z,7.30
2023-05-09T15:30:00.944Z,9.55
2023-05-09T15:32:28.504Z,8.98
2023-05-09T15:34:56.083Z,6.85
2023-05-09T15:37:24.080Z,6.40
2023-05-09T15:39:51.518Z,6.40
2023-05-09T15:42:20.365Z,8.25
2023-05-09T15:44:47.926Z,10.38
2023-05-09T15:47:15.923Z,11.15
2023-05-09T15:49:43.361Z,6.68
2023-05-09T15:52:11.545Z,10.25
2023-05-09T15:54:40.297Z,6.88
2023-05-09T15:57:08.791Z,7.30
2023-05-09T15:59:37.497Z,7.15
2023-05-09T16:02:06.182Z,6.55
2023-05-09T16:04:34.204Z,8.10
2023-05-09T16:07:03.882Z,7.05
2023-05-09T16:10:17.382Z,8.13
2023-05-09T16:12:45.796Z,8.13
2023-05-09T16:15:13.354Z,8.20
2023-05-09T16:17:41.734Z,8.38
2023-05-09T16:20:09.973Z,9.88
2023-05-09T16:22:38.137Z,6.93
2023-05-09T16:25:07.029Z,7.90
2023-05-09T16:27:34.831Z,7.65
2023-05-09T16:30:04.532Z,8.48
2023-05-09T16:32:34.163Z,7.55
2023-05-09T16:35:03.090Z,6.82
2023-05-09T16:37:31.369Z,6.25
2023-05-09T16:40:03.784Z,6.40
2023-05-09T16:42:32.069Z,6.68
2023-05-09T16:45:00.113Z,6.22
2023-05-09T16:47:29.907Z,6.53
2023-05-09T16:49:58.288Z,6.97
2023-05-09T16:52:28.199Z,8.23
2023-05-09T16:54:59.569Z,6.55
2023-05-09T16:57:27.302Z,7.57
2023-05-09T16:59:56.452Z,7.25
2023-05-09T17:02:24.608Z,6.88
2023-05-09T17:04:52.679Z,6.57
2023-05-09T17:07:20.941Z,7.05
2023-05-09T17:09:49.906Z,8.50
2023-05-09T17:12:18.832Z,6.60
2023-05-09T17:14:46.979Z,7.72
2023-05-09T17:17:21.797Z,7.20
2023-05-09T17:19:49.468Z,6.55
2023-05-09T17:22:17.494Z,5.78
2023-05-09T17:24:45.164Z,7.03
2023-05-09T17:27:13.105Z,4.68
2023-05-09T17:29:41.538Z,2.10
2023-05-09T17:32:09.363Z,2.15
2023-05-09T17:34:38.188Z,1.95
2023-05-09T17:37:06.968Z,1.50
2023-05-09T17:39:34.988Z,5.20
2023-05-09T17:42:04.074Z,3.97
2023-05-09T17:44:32.685Z,3.47
2023-05-09T17:47:01.661Z,2.10
2023-05-09T17:49:30.272Z,2.35
2023-05-09T17:51:58.431Z,2.40
2023-05-09T17:54:26.118Z,3.40
2023-05-09T17:56:56.314Z,5.90
2023-05-09T17:59:24.089Z,5.45
2023-05-09T18:01:52.294Z,3.65
2023-05-09T18:04:20.008Z,4.20
2023-05-09T18:06:50.659Z,2.15
2023-05-09T18:09:19.144Z,1.70
2023-05-09T18:11:47.441Z,2.40
2023-05-09T18:14:15.686Z,4.00
2023-05-09T18:16:43.944Z,2.70
2023-05-09T18:19:11.997Z,1.85
2023-05-09T18:21:42.758Z,1.90
2023-05-09T18:24:11.350Z,2.72
2023-05-09T18:26:38.994Z,2.00
2023-05-09T18:29:07.069Z,2.70
2023-05-09T18:31:39.091Z,2.63
2023-05-09T18:34:06.951Z,2.08
2023-05-09T18:36:35.267Z,1.90
2023-05-09T18:39:03.233Z,2.10
2023-05-09T18:41:32.156Z,1.83
2023-05-09T18:44:00.322Z,1.50
2023-05-09T18:46:30.382Z,1.63
2023-05-09T18:48:58.817Z,1.55
2023-05-09T18:51:27.557Z,1.45
2023-05-09T18:53:56.189Z,1.88
2023-05-09T18:56:25.752Z,1.58
2023-05-09T18:58:54.499Z,1.25
2023-05-09T19:01:24.728Z,1.45
2023-05-09T19:03:54.656Z,1.50
2023-05-09T19:06:24.520Z,2.15
2023-05-09T19:08:54.266Z,2.00
2023-05-09T19:11:23.331Z,2.08
2023-05-09T19:13:53.232Z,1.50
2023-05-09T19:16:23.048Z,1.30
2023-05-09T19:18:51.443Z,2.58
2023-05-09T19:21:19.429Z,1.75
2023-05-09T19:23:50.639Z,1.30
2023-05-09T19:26:20.651Z,1.55
2023-05-09T19:28:48.529Z,1.50
2023-05-09T19:31:17.035Z,1.70
2023-05-09T19:33:48.286Z,1.45
2023-05-09T19:36:16.451Z,1.70
2023-05-09T19:38:44.820Z,1.55
2023-05-09T19:41:14.496Z,1.67
2023-05-09T19:43:42.905Z,1.50
2023-05-09T19:46:11.675Z,1.67
2023-05-09T19:48:39.640Z,1.63
2023-05-09T19:51:09.356Z,2.30
2023-05-09T19:53:37.055Z,3.17
2023-05-09T19:56:05.427Z,1.55
2023-05-09T19:58:33.422Z,2.25
2023-05-09T20:01:02.182Z,1.92
2023-05-09T20:03:33.910Z,1.83
2023-05-09T20:06:02.290Z,1.42
2023-05-09T20:08:30.480Z,1.80
2023-05-09T20:11:00.509Z,1.77
2023-05-09T20:13:28.812Z,2.00
2023-05-09T20:16:03.812Z,2.03
2023-05-09T20:18:34.393Z,1.90
2023-05-09T20:21:03.019Z,2.08
2023-05-09T20:23:32.021Z,1.98
2023-05-09T20:26:00.408Z,1.88
2023-05-09T20:28:34.660Z,1.98
2023-05-09T20:31:02.965Z,1.90
2023-05-09T20:33:33.474Z,1.85
2023-05-09T20:36:01.464Z,2.30
2023-05-09T20:38:29.544Z,2.20
2023-05-09T20:40:57.400Z,3.22
2023-05-09T20:43:25.946Z,2.70
2023-05-09T20:45:54.993Z,2.30
2023-05-09T20:48:24.170Z,3.33
2023-05-09T20:50:52.507Z,3.85
2023-05-09T20:53:21.241Z,6.07
2023-05-09T20:55:50.715Z,7.57
2023-05-09T20:58:19.415Z,7.35
2023-05-09T21:00:48.049Z,4.28
2023-05-09T21:03:16.557Z,4.47
2023-05-09T21:05:45.444Z,3.83
2023-05-09T21:08:14.048Z,3.40
2023-05-09T21:10:43.075Z,3.88
2023-05-09T21:13:11.433Z,3.67
2023-05-09T21:15:39.531Z,3.17
2023-05-09T21:18:07.746Z,3.28
2023-05-09T21:20:35.825Z,3.20
2023-05-09T21:23:03.941Z,3.97
2023-05-09T21:25:31.904Z,3.65
2023-05-09T21:27:59.676Z,2.92
2023-05-09T21:30:28.137Z,2.60
2023-05-09T21:32:56.274Z,2.90
2023-05-09T21:35:25.939Z,3.33
2023-05-09T21:37:54.505Z,3.25
2023-05-09T21:40:22.960Z,3.30
2023-05-09T21:42:50.495Z,3.13
2023-05-09T21:45:19.675Z,3.67
2023-05-09T21:47:48.216Z,2.70
2023-05-09T21:50:16.801Z,2.90
2023-05-09T21:52:46.082Z,2.38
2023-05-09T21:55:14.924Z,3.15
2023-05-09T21:57:43.477Z,2.67
2023-05-09T22:00:25.175Z,2.30
2023-05-09T22:02:54.112Z,2.20
2023-05-09T22:05:24.030Z,2.70
2023-05-09T22:07:52.943Z,2.75
2023-05-09T22:10:22.339Z,2.88
2023-05-09T22:12:50.463Z,4.68
2023-05-09T22:15:19.843Z,2.38
2023-05-09T22:17:50.803Z,2.50
2023-05-09T22:20:19.432Z,3.30
2023-05-09T22:22:48.079Z,3.08
2023-05-09T22:25:17.218Z,2.65
2023-05-09T22:27:46.609Z,2.22
2023-05-09T22:30:20.109Z,2.45
2023-05-09T22:32:48.274Z,2.55
2023-05-09T22:35:20.041Z,1.67
2023-05-09T22:37:48.743Z,1.70
2023-05-09T22:40:17.726Z,1.50
2023-05-09T22:42:47.863Z,1.67
2023-05-09T22:45:18.171Z,1.55
2023-05-09T22:47:46.586Z,1.33
2023-05-09T22:50:19.532Z,1.30
2023-05-09T22:52:48.186Z,1.20
2023-05-09T22:55:16.810Z,1.10
2023-05-09T22:57:45.614Z,1.10
2023-05-09T23:00:16.063Z,1.13
2023-05-09T23:02:48.148Z,0.98
2023-05-09T23:05:21.000Z,1.02
2023-05-09T23:07:52.703Z,1.02
2023-05-09T23:10:20.989Z,2.08
2023-05-09T23:12:49.382Z,0.80
2023-05-09T23:15:17.792Z,1.00
2023-05-09T23:17:47.332Z,1.60
2023-05-09T23:20:17.122Z,1.48
2023-05-09T23:22:46.261Z,0.90
2023-05-09T23:25:14.604Z,1.05
2023-05-09T23:27:45.909Z,3.03
2023-05-09T23:30:14.781Z,1.02
2023-05-09T23:32:43.836Z,1.85
2023-05-09T23:35:12.795Z,1.40
2023-05-09T23:37:41.771Z,3.58
2023-05-09T23:40:10.326Z,0.88
2023-05-09T23:42:38.736Z,1.45
2023-05-09T23:45:07.505Z,0.88
2023-05-09T23:47:35.965Z,1.87
2023-05-09T23:50:03.701Z,2.60
2023-05-09T23:52:33.266Z,2.05
2023-05-09T23:55:03.409Z,0.80
2023-05-09T23:57:32.552Z,0.90
